Mesa.AZweather.com - Mesa, AZ
   Red Mountain Frwy and University Dr., El 1518 ft.
       --- Friday  Nov. 27, 2020 ---
 
 High Temperature ..  63F at 13:23
 Low Temperature ...  36F at 07:26
 
 High Humidity .....  50% at 07:54
 Low Humidity ......  19% at 12:21
 
 High Barometer ....  30.20 at 23:57
 Low Barometer .....  29.95 at 00:41
 
 High Dew Point ....  25F at 17:04
 Low Dew Point .....  18F at 07:26
 
 Rainfall Total ....  0.00 in.
 
 High Wind Speed ...  ---
                     
 
 Time   Temp  Humi  Rain     Baro  DewPt  Wind
00:00,  46F, 35%, 0.00 in, 29.96, 20F, ---
00:30,  46F, 37%, 0.00 in, 29.96, 22F, ---
01:00,  46F, 37%, 0.00 in, 29.97, 22F, ---
01:30,  45F, 38%, 0.00 in, 29.98, 21F, ---
02:00,  44F, 41%, 0.00 in, 29.99, 22F, ---
02:30,  42F, 42%, 0.00 in, 29.98, 21F, ---
03:00,  41F, 44%, 0.00 in, 29.99, 21F, ---
03:30,  40F, 45%, 0.00 in, 29.99, 20F, ---
04:00,  40F, 45%, 0.00 in, 30.00, 20F, ---
04:30,  39F, 47%, 0.00 in, 30.01, 21F, ---
05:00,  39F, 47%, 0.00 in, 30.02, 21F, ---
05:30,  38F, 48%, 0.00 in, 30.02, 20F, ---
06:00,  38F, 48%, 0.00 in, 30.03, 20F, ---
06:30,  38F, 47%, 0.00 in, 30.04, 19F, ---
07:00,  37F, 48%, 0.00 in, 30.06, 20F, ---
07:30,  36F, 49%, 0.00 in, 30.07, 18F, ---
08:00,  36F, 50%, 0.00 in, 30.08, 19F, ---
08:30,  42F, 44%, 0.00 in, 30.09, 22F, ---
09:00,  46F, 38%, 0.00 in, 30.11, 22F, ---
09:30,  51F, 33%, 0.00 in, 30.12, 24F, ---
10:00,  55F, 28%, 0.00 in, 30.12, 23F, ---
10:30,  57F, 25%, 0.00 in, 30.13, 22F, ---
11:00,  60F, 22%, 0.00 in, 30.14, 22F, ---
11:30,  60F, 21%, 0.00 in, 30.13, 21F, ---
12:00,  61F, 20%, 0.00 in, 30.13, 20F, ---
12:30,  61F, 19%, 0.00 in, 30.12, 18F, ---
13:00,  62F, 20%, 0.00 in, 30.12, 21F, ---
13:30,  62F, 20%, 0.00 in, 30.11, 21F, ---
14:00,  63F, 20%, 0.00 in, 30.10, 21F, ---
14:30,  63F, 21%, 0.00 in, 30.11, 22F, ---
15:00,  62F, 22%, 0.00 in, 30.10, 23F, ---
15:30,  63F, 22%, 0.00 in, 30.10, 23F, ---
16:00,  63F, 22%, 0.00 in, 30.10, 23F, ---
16:30,  63F, 22%, 0.00 in, 30.10, 23F, ---
17:00,  61F, 24%, 0.00 in, 30.12, 24F, ---
17:30,  58F, 26%, 0.00 in, 30.12, 23F, ---
18:00,  55F, 29%, 0.00 in, 30.13, 24F, ---
18:30,  53F, 33%, 0.00 in, 30.14, 25F, ---
19:00,  50F, 36%, 0.00 in, 30.15, 24F, ---
19:30,  48F, 37%, 0.00 in, 30.15, 23F, ---
20:00,  47F, 39%, 0.00 in, 30.16, 23F, ---
20:30,  46F, 39%, 0.00 in, 30.17, 23F, ---
21:00,  46F, 39%, 0.00 in, 30.17, 23F, ---
21:30,  46F, 40%, 0.00 in, 30.18, 23F, ---
22:00,  45F, 40%, 0.00 in, 30.17, 22F, ---
22:30,  43F, 42%, 0.00 in, 30.17, 21F, ---
23:00,  43F, 44%, 0.00 in, 30.17, 22F, ---
23:30,  42F, 44%, 0.00 in, 30.17, 22F, ---
23:59,  41F, 47%, 0.00 in, 30.19, 22F, ---